Aviation Digital Data Service (ADDS)

Output produced by METARs form (1043 UTC 18 June 2019)
found at http://www.aviationweather.gov/metar/data/
 
METAR text: CYHZ 181000Z 29005KT 15SM SCT300 14/12 A2995 RMK CI3 SLP145 DENSITY ALT 500FT
Conditions at: CYHZ (HALIFAX INTL ARP, NS, CA) observed 1000 UTC 18 June 2019
Temperature: 14.0°C (57°F)
Dewpoint: 12.0°C (54°F) [RH = 88%]
Pressure (altimeter): 29.95 inches Hg (1014.3 mb)
[Sea-level pressure: 1014.5 mb]
Winds: from the WNW (290 degrees) at 6 MPH (5 knots; 2.6 m/s)
Visibility: 15 miles (24 km)
Ceiling: at least 12,000 feet AGL
Clouds: scattered clouds at 30000 feet AGL
Weather: no significant weather observed at this time

METAR text: CYHZ 180900Z 30007KT 15SM FEW090 SCT300 12/11 A2994 RMK AC1CI2 SLP141
Conditions at: CYHZ (HALIFAX INTL ARP, NS, CA) observed 0900 UTC 18 June 2019
Temperature: 12.0°C (54°F)
Dewpoint: 11.0°C (52°F) [RH = 94%]
Pressure (altimeter): 29.94 inches Hg (1014.0 mb)
[Sea-level pressure: 1014.1 mb]
Winds: from the WNW (300 degrees) at 8 MPH (7 knots; 3.6 m/s)
Visibility: 15 miles (24 km)
Ceiling: at least 12,000 feet AGL
Clouds: few clouds at 9000 feet AGL
scattered clouds at 30000 feet AGL
Weather: no significant weather observed at this time

METAR text: CYHZ 180800Z 28006KT 15SM FEW090 SCT300 12/11 A2994 RMK AC1CI3 SLP139
Conditions at: CYHZ (HALIFAX INTL ARP, NS, CA) observed 0800 UTC 18 June 2019
Temperature: 12.0°C (54°F)
Dewpoint: 11.0°C (52°F) [RH = 94%]
Pressure (altimeter): 29.94 inches Hg (1014.0 mb)
[Sea-level pressure: 1013.9 mb]
Winds: from the W (280 degrees) at 7 MPH (6 knots; 3.1 m/s)
Visibility: 15 miles (24 km)
Ceiling: at least 12,000 feet AGL
Clouds: few clouds at 9000 feet AGL
scattered clouds at 30000 feet AGL
Weather: no significant weather observed at this time

METAR text: CYHZ 180700Z 32005KT 15SM FEW090 13/12 A2992 RMK AC2 SLP133
Conditions at: CYHZ (HALIFAX INTL ARP, NS, CA) observed 0700 UTC 18 June 2019
Temperature: 13.0°C (55°F)
Dewpoint: 12.0°C (54°F) [RH = 94%]
Pressure (altimeter): 29.92 inches Hg (1013.3 mb)
[Sea-level pressure: 1013.3 mb]
Winds: from the NW (320 degrees) at 6 MPH (5 knots; 2.6 m/s)
Visibility: 15 miles (24 km)
Ceiling: at least 12,000 feet AGL
Clouds: few clouds at 9000 feet AGL
Weather: no significant weather observed at this time

METAR text: CYHZ 180600Z 35007KT 15SM FEW300 13/13 A2991 RMK CI1 SLP129
Conditions at: CYHZ (HALIFAX INTL ARP, NS, CA) observed 0600 UTC 18 June 2019
Temperature: 13.0°C (55°F)
Dewpoint: 13.0°C (55°F) [RH = 100%]
Pressure (altimeter): 29.91 inches Hg (1013.0 mb)
[Sea-level pressure: 1012.9 mb]
Winds: from the N (350 degrees) at 8 MPH (7 knots; 3.6 m/s)
Visibility: 15 miles (24 km)
Ceiling: at least 12,000 feet AGL
Clouds: few clouds at 30000 feet AGL
Weather: no significant weather observed at this time

METAR text: CYHZ 180500Z 35006KT 15SM FEW210 13/12 A2991 RMK CI1 SLP129
Conditions at: CYHZ (HALIFAX INTL ARP, NS, CA) observed 0500 UTC 18 June 2019
Temperature: 13.0°C (55°F)
Dewpoint: 12.0°C (54°F) [RH = 94%]
Pressure (altimeter): 29.91 inches Hg (1013.0 mb)
[Sea-level pressure: 1012.9 mb]
Winds: from the N (350 degrees) at 7 MPH (6 knots; 3.1 m/s)
Visibility: 15 miles (24 km)
Ceiling: at least 12,000 feet AGL
Clouds: few clouds at 21000 feet AGL
Weather: no significant weather observed at this time

METAR text: CYHZ 180400Z 34006KT 15SM SCT091 13/12 A2990 RMK AC3 SLP129 DENSITY ALT 500FT
Conditions at: CYHZ (HALIFAX INTL ARP, NS, CA) observed 0400 UTC 18 June 2019
Temperature: 13.0°C (55°F)
Dewpoint: 12.0°C (54°F) [RH = 94%]
Pressure (altimeter): 29.90 inches Hg (1012.6 mb)
[Sea-level pressure: 1012.9 mb]
Winds: from the NNW (340 degrees) at 7 MPH (6 knots; 3.1 m/s)
Visibility: 15 miles (24 km)
Ceiling: at least 12,000 feet AGL
Clouds: scattered clouds at 9100 feet AGL
Weather: no significant weather observed at this time

METAR text: CYHZ 180300Z 34007KT 15SM FEW070 15/11 A2990 RMK AC2 SLP127 DENSITY ALT 600FT
Conditions at: CYHZ (HALIFAX INTL ARP, NS, CA) observed 0300 UTC 18 June 2019
Temperature: 15.0°C (59°F)
Dewpoint: 11.0°C (52°F) [RH = 77%]
Pressure (altimeter): 29.90 inches Hg (1012.6 mb)
[Sea-level pressure: 1012.7 mb]
Winds: from the NNW (340 degrees) at 8 MPH (7 knots; 3.6 m/s)
Visibility: 15 miles (24 km)
Ceiling: at least 12,000 feet AGL
Clouds: few clouds at 7000 feet AGL
Weather: no significant weather observed at this time

METAR text: CYHZ 180200Z 32009KT 15SM FEW075 17/12 A2988 RMK AC2 SLP120 DENSITY ALT 900FT
Conditions at: CYHZ (HALIFAX INTL ARP, NS, CA) observed 0200 UTC 18 June 2019
Temperature: 17.0°C (63°F)
Dewpoint: 12.0°C (54°F) [RH = 72%]
Pressure (altimeter): 29.88 inches Hg (1011.9 mb)
[Sea-level pressure: 1012.0 mb]
Winds: from the NW (320 degrees) at 10 MPH (9 knots; 4.6 m/s)
Visibility: 15 miles (24 km)
Ceiling: at least 12,000 feet AGL
Clouds: few clouds at 7500 feet AGL
Weather: no significant weather observed at this time

METAR text: CYHZ 180100Z 34005KT 15SM BKN060 18/11 A2986 RMK SC6 SLP115 DENSITY ALT 1000FT
Conditions at: CYHZ (HALIFAX INTL ARP, NS, CA) observed 0100 UTC 18 June 2019
Temperature: 18.0°C (64°F)
Dewpoint: 11.0°C (52°F) [RH = 64%]
Pressure (altimeter): 29.86 inches Hg (1011.3 mb)
[Sea-level pressure: 1011.5 mb]
Winds: from the NNW (340 degrees) at 6 MPH (5 knots; 2.6 m/s)
Visibility: 15 miles (24 km)
Ceiling: 6000 feet AGL
Clouds: broken clouds at 6000 feet AGL
Weather: no significant weather observed at this time

METAR text: CYHZ 180000Z 34008KT 15SM FEW040 19/12 A2985 RMK SC1 SC TR SLP109 DENSITY ALT 1200FT
Conditions at: CYHZ (HALIFAX INTL ARP, NS, CA) observed 0000 UTC 18 June 2019
Temperature: 19.0°C (66°F)
Dewpoint: 12.0°C (54°F) [RH = 64%]
Pressure (altimeter): 29.85 inches Hg (1010.9 mb)
[Sea-level pressure: 1010.9 mb]
Winds: from the NNW (340 degrees) at 9 MPH (8 knots; 4.1 m/s)
Visibility: 15 miles (24 km)
Ceiling: at least 12,000 feet AGL
Clouds: few clouds at 4000 feet AGL
Weather: no significant weather observed at this time

METAR text: CYHZ 172300Z 34011G17KT 15SM FEW040 21/14 A2983 RMK SC1 SC TR SLP105 DENSITY ALT 1400FT
Conditions at: CYHZ (HALIFAX INTL ARP, NS, CA) observed 2300 UTC 17 June 2019
Temperature: 21.0°C (70°F)
Dewpoint: 14.0°C (57°F) [RH = 64%]
Pressure (altimeter): 29.83 inches Hg (1010.2 mb)
[Sea-level pressure: 1010.5 mb]
Winds: from the NNW (340 degrees) at 13 MPH (11 knots; 5.7 m/s)
gusting to 20 MPH (17 knots; 8.7 m/s)
Visibility: 15 miles (24 km)
Ceiling: at least 12,000 feet AGL
Clouds: few clouds at 4000 feet AGL
Weather: no significant weather observed at this time

METAR text: CYHZ 172200Z 31013KT 15SM FEW040 23/13 A2981 RMK CU1 SLP095 DENSITY ALT 1700FT
Conditions at: CYHZ (HALIFAX INTL ARP, NS, CA) observed 2200 UTC 17 June 2019
Temperature: 23.0°C (73°F)
Dewpoint: 13.0°C (55°F) [RH = 53%]
Pressure (altimeter): 29.81 inches Hg (1009.6 mb)
[Sea-level pressure: 1009.5 mb]
Winds: from the NW (310 degrees) at 15 MPH (13 knots; 6.7 m/s)
Visibility: 15 miles (24 km)
Ceiling: at least 12,000 feet AGL
Clouds: few clouds at 4000 feet AGL
Weather: no significant weather observed at this time

METAR text: CYHZ 172100Z 28010KT 270V360 15SM FEW046 24/13 A2979 RMK CU1 SLP090 DENSITY ALT 1900FT
Conditions at: CYHZ (HALIFAX INTL ARP, NS, CA) observed 2100 UTC 17 June 2019
Temperature: 24.0°C (75°F)
Dewpoint: 13.0°C (55°F) [RH = 50%]
Pressure (altimeter): 29.79 inches Hg (1008.9 mb)
[Sea-level pressure: 1009.0 mb]
Winds: from the W (280 degrees) at 12 MPH (10 knots; 5.1 m/s)
Visibility: 15 miles (24 km)
Ceiling: at least 12,000 feet AGL
Clouds: few clouds at 4600 feet AGL
Weather: no significant weather observed at this time

METAR text: CYHZ 172000Z 27005KT 15SM SCT033 23/15 A2979 RMK CU3 SLP089 DENSITY ALT 1700FT
Conditions at: CYHZ (HALIFAX INTL ARP, NS, CA) observed 2000 UTC 17 June 2019
Temperature: 23.0°C (73°F)
Dewpoint: 15.0°C (59°F) [RH = 61%]
Pressure (altimeter): 29.79 inches Hg (1008.9 mb)
[Sea-level pressure: 1008.9 mb]
Winds: from the W (270 degrees) at 6 MPH (5 knots; 2.6 m/s)
Visibility: 15 miles (24 km)
Ceiling: at least 12,000 feet AGL
Clouds: scattered clouds at 3300 feet AGL
Weather: no significant weather observed at this time

METAR text: CYHZ 171900Z 27008KT 230V300 15SM SCT033 24/16 A2979 RMK CU3 SLP089 DENSITY ALT 1800FT
Conditions at: CYHZ (HALIFAX INTL ARP, NS, CA) observed 1900 UTC 17 June 2019
Temperature: 24.0°C (75°F)
Dewpoint: 16.0°C (61°F) [RH = 61%]
Pressure (altimeter): 29.79 inches Hg (1008.9 mb)
[Sea-level pressure: 1008.9 mb]
Winds: from the W (270 degrees) at 9 MPH (8 knots; 4.1 m/s)
Visibility: 15 miles (24 km)
Ceiling: at least 12,000 feet AGL
Clouds: scattered clouds at 3300 feet AGL
Weather: no significant weather observed at this time

METAR text: CYHZ 171800Z VRB02KT 15SM SCT030 22/15 A2980 RMK CU4 SLP091 DENSITY ALT 1600FT
Conditions at: CYHZ (HALIFAX INTL ARP, NS, CA) observed 1800 UTC 17 June 2019
Temperature: 22.0°C (72°F)
Dewpoint: 15.0°C (59°F) [RH = 65%]
Pressure (altimeter): 29.80 inches Hg (1009.2 mb)
[Sea-level pressure: 1009.1 mb]
Winds: variable direction winds at 2 MPH (2 knots; 1.0 m/s)
Visibility: 15 miles (24 km)
Ceiling: at least 12,000 feet AGL
Clouds: scattered clouds at 3000 feet AGL
Weather: no significant weather observed at this time

METAR text: CYHZ 171700Z 00000KT 15SM BKN017 20/16 A2981 RMK CU5 SLP098 DENSITY ALT 1300FT
Conditions at: CYHZ (HALIFAX INTL ARP, NS, CA) observed 1700 UTC 17 June 2019
Temperature: 20.0°C (68°F)
Dewpoint: 16.0°C (61°F) [RH = 78%]
Pressure (altimeter): 29.81 inches Hg (1009.6 mb)
[Sea-level pressure: 1009.8 mb]
Winds: calm
Visibility: 15 miles (24 km)
Ceiling: 1700 feet AGL
Clouds: broken clouds at 1700 feet AGL
Weather: no significant weather observed at this time

METAR text: CYHZ 171631Z 31004KT 290V350 15SM SCT008 BKN020 19/17 A2981 RMK SF4SC2 SLP097 DENSITY ALT 1200FT
Conditions at: CYHZ (HALIFAX INTL ARP, NS, CA) observed 1631 UTC 17 June 2019
Temperature: 19.0°C (66°F)
Dewpoint: 17.0°C (63°F) [RH = 88%]
Pressure (altimeter): 29.81 inches Hg (1009.6 mb)
[Sea-level pressure: 1009.7 mb]
Winds: from the NW (310 degrees) at 5 MPH (4 knots; 2.1 m/s)
Visibility: 15 miles (24 km)
Ceiling: 2000 feet AGL
Clouds: scattered clouds at 800 feet AGL
broken clouds at 2000 feet AGL
Weather: no significant weather observed at this time

METAR text: CYHZ 171615Z 31005KT 15SM BKN007 OVC020 18/17 A2981 RMK SF6SC2 SLP097 DENSITY ALT 1100FT
Conditions at: CYHZ (HALIFAX INTL ARP, NS, CA) observed 1615 UTC 17 June 2019
Temperature: 18.0°C (64°F)
Dewpoint: 17.0°C (63°F) [RH = 94%]
Pressure (altimeter): 29.81 inches Hg (1009.6 mb)
[Sea-level pressure: 1009.7 mb]
Winds: from the NW (310 degrees) at 6 MPH (5 knots; 2.6 m/s)
Visibility: 15 miles (24 km)
Ceiling: 700 feet AGL
Clouds: broken clouds at 700 feet AGL
overcast cloud deck at 2000 feet AGL
Weather: no significant weather observed at this time

METAR text: CYHZ 171600Z 31005KT 15SM BKN005 OVC015 18/17 A2981 RMK SF6SC2 SLP098 DENSITY ALT 1100FT
Conditions at: CYHZ (HALIFAX INTL ARP, NS, CA) observed 1600 UTC 17 June 2019
Temperature: 18.0°C (64°F)
Dewpoint: 17.0°C (63°F) [RH = 94%]
Pressure (altimeter): 29.81 inches Hg (1009.6 mb)
[Sea-level pressure: 1009.8 mb]
Winds: from the NW (310 degrees) at 6 MPH (5 knots; 2.6 m/s)
Visibility: 15 miles (24 km)
Ceiling: 500 feet AGL
Clouds: broken clouds at 500 feet AGL
overcast cloud deck at 1500 feet AGL
Weather: no significant weather observed at this time

METAR text: CYHZ 171547Z 31007KT 8SM BKN005 OVC012 17/17 A2982 RMK SF6SC2 SLP099 DENSITY ALT 1000FT
Conditions at: CYHZ (HALIFAX INTL ARP, NS, CA) observed 1547 UTC 17 June 2019
Temperature: 17.0°C (63°F)
Dewpoint: 17.0°C (63°F) [RH = 100%]
Pressure (altimeter): 29.82 inches Hg (1009.9 mb)
[Sea-level pressure: 1009.9 mb]
Winds: from the NW (310 degrees) at 8 MPH (7 knots; 3.6 m/s)
Visibility: 8 miles (13 km)
Ceiling: 500 feet AGL
Clouds: broken clouds at 500 feet AGL
overcast cloud deck at 1200 feet AGL
Weather: no significant weather observed at this time

METAR text: CYHZ 171500Z 33005KT 3SM BR OVC002 16/16 A2980 RMK ST8 SLP095 DENSITY ALT 900FT
Conditions at: CYHZ (HALIFAX INTL ARP, NS, CA) observed 1500 UTC 17 June 2019
Temperature: 16.0°C (61°F)
Dewpoint: 16.0°C (61°F) [RH = 100%]
Pressure (altimeter): 29.80 inches Hg (1009.2 mb)
[Sea-level pressure: 1009.5 mb]
Winds: from the NNW (330 degrees) at 6 MPH (5 knots; 2.6 m/s)
Visibility: 3 miles ( 5 km)
Ceiling: 200 feet AGL
Clouds: overcast cloud deck at 200 feet AGL
Weather: BR  (mist)

METAR text: CYHZ 171442Z 33006KT 1 1/2SM BR OVC002 16/16 A2980 RMK ST8 SLP093 DENSITY ALT 900FT
Conditions at: CYHZ (HALIFAX INTL ARP, NS, CA) observed 1442 UTC 17 June 2019
Temperature: 16.0°C (61°F)
Dewpoint: 16.0°C (61°F) [RH = 100%]
Pressure (altimeter): 29.80 inches Hg (1009.2 mb)
[Sea-level pressure: 1009.3 mb]
Winds: from the NNW (330 degrees) at 7 MPH (6 knots; 3.1 m/s)
Visibility: 1.50 miles (2.41 km)
Ceiling: 200 feet AGL
Clouds: overcast cloud deck at 200 feet AGL
Weather: BR  (mist)

METAR text: CYHZ 171433Z 33006KT 2SM BR OVC002 16/16 A2980 RMK ST8 SLP093 DENSITY ALT 900FT
Conditions at: CYHZ (HALIFAX INTL ARP, NS, CA) observed 1433 UTC 17 June 2019
Temperature: 16.0°C (61°F)
Dewpoint: 16.0°C (61°F) [RH = 100%]
Pressure (altimeter): 29.80 inches Hg (1009.2 mb)
[Sea-level pressure: 1009.3 mb]
Winds: from the NNW (330 degrees) at 7 MPH (6 knots; 3.1 m/s)
Visibility: 2.00 miles (3.22 km)
Ceiling: 200 feet AGL
Clouds: overcast cloud deck at 200 feet AGL
Weather: BR  (mist)

METAR text: CYHZ 171422Z 35007KT 4SM BR BKN002 OVC010 16/16 A2979 RMK SF6SC2 VIS N 1 SLP091 DENSITY ALT 900FT
Conditions at: CYHZ (HALIFAX INTL ARP, NS, CA) observed 1422 UTC 17 June 2019
Temperature: 16.0°C (61°F)
Dewpoint: 16.0°C (61°F) [RH = 100%]
Pressure (altimeter): 29.79 inches Hg (1008.9 mb)
[Sea-level pressure: 1009.1 mb]
Winds: from the N (350 degrees) at 8 MPH (7 knots; 3.6 m/s)
Visibility: 4 miles ( 6 km)
Ceiling: 200 feet AGL
Clouds: broken clouds at 200 feet AGL
overcast cloud deck at 1000 feet AGL
Weather: BR  (mist)

METAR text: CYHZ 171400Z 22002KT 8SM BKN004 OVC012 17/17 A2980 RMK SF6SC2 SLP092 DENSITY ALT 1000FT
Conditions at: CYHZ (HALIFAX INTL ARP, NS, CA) observed 1400 UTC 17 June 2019
Temperature: 17.0°C (63°F)
Dewpoint: 17.0°C (63°F) [RH = 100%]
Pressure (altimeter): 29.80 inches Hg (1009.2 mb)
[Sea-level pressure: 1009.2 mb]
Winds: from the SW (220 degrees) at 2 MPH (2 knots; 1.0 m/s)
Visibility: 8 miles (13 km)
Ceiling: 400 feet AGL
Clouds: broken clouds at 400 feet AGL
overcast cloud deck at 1200 feet AGL
Weather: no significant weather observed at this time

METAR text: CYHZ 171333Z VRB02KT 8SM OVC004 17/17 A2980 RMK SF8 CIG RAG SLP095 DENSITY ALT 1000FT
Conditions at: CYHZ (HALIFAX INTL ARP, NS, CA) observed 1333 UTC 17 June 2019
Temperature: 17.0°C (63°F)
Dewpoint: 17.0°C (63°F) [RH = 100%]
Pressure (altimeter): 29.80 inches Hg (1009.2 mb)
[Sea-level pressure: 1009.5 mb]
Winds: variable direction winds at 2 MPH (2 knots; 1.0 m/s)
Visibility: 8 miles (13 km)
Ceiling: 400 feet AGL
Clouds: overcast cloud deck at 400 feet AGL
Weather: no significant weather observed at this time

METAR text: CYHZ 171309Z VRB02KT 3SM BR BKN002 BKN013 16/16 A2981 RMK SF6SC1 SLP097 DENSITY ALT 800FT
Conditions at: CYHZ (HALIFAX INTL ARP, NS, CA) observed 1309 UTC 17 June 2019
Temperature: 16.0°C (61°F)
Dewpoint: 16.0°C (61°F) [RH = 100%]
Pressure (altimeter): 29.81 inches Hg (1009.6 mb)
[Sea-level pressure: 1009.7 mb]
Winds: variable direction winds at 2 MPH (2 knots; 1.0 m/s)
Visibility: 3 miles ( 5 km)
Ceiling: 200 feet AGL
Clouds: broken clouds at 200 feet AGL
broken clouds at 1300 feet AGL
Weather: BR  (mist)

METAR text: CYHZ 171300Z VRB02KT 2 1/2SM BR OVC002 15/15 A2981 RMK ST8 SLP096 DENSITY ALT 800FT
Conditions at: CYHZ (HALIFAX INTL ARP, NS, CA) observed 1300 UTC 17 June 2019
Temperature: 15.0°C (59°F)
Dewpoint: 15.0°C (59°F) [RH = 100%]
Pressure (altimeter): 29.81 inches Hg (1009.6 mb)
[Sea-level pressure: 1009.6 mb]
Winds: variable direction winds at 2 MPH (2 knots; 1.0 m/s)
Visibility: 2.50 miles (4.02 km)
Ceiling: 200 feet AGL
Clouds: overcast cloud deck at 200 feet AGL
Weather: BR  (mist)

METAR text: CYHZ 171254Z VRB02KT 1 1/2SM BR OVC002 15/15 A2980 RMK ST8 SLP095 DENSITY ALT 700FT
Conditions at: CYHZ (HALIFAX INTL ARP, NS, CA) observed 1254 UTC 17 June 2019
Temperature: 15.0°C (59°F)
Dewpoint: 15.0°C (59°F) [RH = 100%]
Pressure (altimeter): 29.80 inches Hg (1009.2 mb)
[Sea-level pressure: 1009.5 mb]
Winds: variable direction winds at 2 MPH (2 knots; 1.0 m/s)
Visibility: 1.50 miles (2.41 km)
Ceiling: 200 feet AGL
Clouds: overcast cloud deck at 200 feet AGL
Weather: BR  (mist)

METAR text: CYHZ 171237Z 12005KT 1/2SM R23/P6000FT/N R14/P6000FT/N FG VV002 15/15 A2980 RMK FG8 SLP094 DENSITY ALT 700FT
Conditions at: CYHZ (HALIFAX INTL ARP, NS, CA) observed 1237 UTC 17 June 2019
Temperature: 15.0°C (59°F)
Dewpoint: 15.0°C (59°F) [RH = 100%]
Pressure (altimeter): 29.80 inches Hg (1009.2 mb)
[Sea-level pressure: 1009.4 mb]
Winds: from the ESE (120 degrees) at 6 MPH (5 knots; 2.6 m/s)
Visibility: 0.50 miles (0.80 km)
Ceiling: indefinite ceiling with vertical visibility of 200 feet AGL
Clouds: obscured sky
Weather: FG  (fog)

METAR text: CYHZ 171221Z VRB02KT 1SM R23/P6000FT/N R14/3000V5000FT/D -DZ BR OVC002 14/14 A2981 RMK ST8 SLP096 DENSITY ALT 700FT
Conditions at: CYHZ (HALIFAX INTL ARP, NS, CA) observed 1221 UTC 17 June 2019
Temperature: 14.0°C (57°F)
Dewpoint: 14.0°C (57°F) [RH = 100%]
Pressure (altimeter): 29.81 inches Hg (1009.6 mb)
[Sea-level pressure: 1009.6 mb]
Winds: variable direction winds at 2 MPH (2 knots; 1.0 m/s)
Visibility: 1.00 miles (1.61 km)
Ceiling: 200 feet AGL
Clouds: overcast cloud deck at 200 feet AGL
Weather: -DZ BR  (light drizzle, mist)

METAR text: CYHZ 171207Z VRB02KT 2SM -DZ BR OVC003 14/14 A2981 RMK ST8 SLP098 DENSITY ALT 600FT
Conditions at: CYHZ (HALIFAX INTL ARP, NS, CA) observed 1207 UTC 17 June 2019
Temperature: 14.0°C (57°F)
Dewpoint: 14.0°C (57°F) [RH = 100%]
Pressure (altimeter): 29.81 inches Hg (1009.6 mb)
[Sea-level pressure: 1009.8 mb]
Winds: variable direction winds at 2 MPH (2 knots; 1.0 m/s)
Visibility: 2.00 miles (3.22 km)
Ceiling: 300 feet AGL
Clouds: overcast cloud deck at 300 feet AGL
Weather: -DZ BR  (light drizzle, mist)

METAR text: CYHZ 171200Z 00000KT 1SM R23/P6000FT/N R14/P6000FT/N -DZ BR OVC003 14/14 A2981 RMK ST8 SLP098 DENSITY ALT 600FT
Conditions at: CYHZ (HALIFAX INTL ARP, NS, CA) observed 1200 UTC 17 June 2019
Temperature: 14.0°C (57°F)
Dewpoint: 14.0°C (57°F) [RH = 100%]
Pressure (altimeter): 29.81 inches Hg (1009.6 mb)
[Sea-level pressure: 1009.8 mb]
Winds: calm
Visibility: 1.00 miles (1.61 km)
Ceiling: 300 feet AGL
Clouds: overcast cloud deck at 300 feet AGL
Weather: -DZ BR  (light drizzle, mist)

METAR text: CYHZ 171153Z VRB02KT 1SM R23/P6000FT/N R14/P6000FT/N -DZ BR VV003 14/14 A2981 RMK FG8 SLP097 DENSITY ALT 600FT
Conditions at: CYHZ (HALIFAX INTL ARP, NS, CA) observed 1153 UTC 17 June 2019
Temperature: 14.0°C (57°F)
Dewpoint: 14.0°C (57°F) [RH = 100%]
Pressure (altimeter): 29.81 inches Hg (1009.6 mb)
[Sea-level pressure: 1009.7 mb]
Winds: variable direction winds at 2 MPH (2 knots; 1.0 m/s)
Visibility: 1.00 miles (1.61 km)
Ceiling: indefinite ceiling with vertical visibility of 300 feet AGL
Clouds: obscured sky
Weather: -DZ BR  (light drizzle, mist)

METAR text: CYHZ 171137Z VRB02KT 1SM R23/P6000FT/N R14/P6000FT/N -RA BR VV003 14/14 A2981 RMK FG8 SLP098 DENSITY ALT 600FT
Conditions at: CYHZ (HALIFAX INTL ARP, NS, CA) observed 1137 UTC 17 June 2019
Temperature: 14.0°C (57°F)
Dewpoint: 14.0°C (57°F) [RH = 100%]
Pressure (altimeter): 29.81 inches Hg (1009.6 mb)
[Sea-level pressure: 1009.8 mb]
Winds: variable direction winds at 2 MPH (2 knots; 1.0 m/s)
Visibility: 1.00 miles (1.61 km)
Ceiling: indefinite ceiling with vertical visibility of 300 feet AGL
Clouds: obscured sky
Weather: -RA BR  (light rain, mist)

METAR text: CYHZ 171119Z 10006KT 3/4SM R23/P6000FT/N R14/P6000FT/N -RA BR VV003 13/13 A2980 RMK FG8 SLP095 DENSITY ALT 600FT
Conditions at: CYHZ (HALIFAX INTL ARP, NS, CA) observed 1119 UTC 17 June 2019
Temperature: 13.0°C (55°F)
Dewpoint: 13.0°C (55°F) [RH = 100%]
Pressure (altimeter): 29.80 inches Hg (1009.2 mb)
[Sea-level pressure: 1009.5 mb]
Winds: from the E (100 degrees) at 7 MPH (6 knots; 3.1 m/s)
Visibility: 0.75 miles (1.21 km)
Ceiling: indefinite ceiling with vertical visibility of 300 feet AGL
Clouds: obscured sky
Weather: -RA BR  (light rain, mist)

METAR text: CYHZ 171100Z 12009KT 1SM R23/P6000FT/N R14/P6000FT/N -RA BR BKN003 OVC009 13/13 A2980 RMK SF6SF2 SLP093 DENSITY ALT 500FT
Conditions at: CYHZ (HALIFAX INTL ARP, NS, CA) observed 1100 UTC 17 June 2019
Temperature: 13.0°C (55°F)
Dewpoint: 13.0°C (55°F) [RH = 100%]
Pressure (altimeter): 29.80 inches Hg (1009.2 mb)
[Sea-level pressure: 1009.3 mb]
Winds: from the ESE (120 degrees) at 10 MPH (9 knots; 4.6 m/s)
Visibility: 1.00 miles (1.61 km)
Ceiling: 300 feet AGL
Clouds: broken clouds at 300 feet AGL
overcast cloud deck at 900 feet AGL
Weather: -RA BR  (light rain, mist)

METAR text: CYHZ 171046Z 13009KT 1/2SM R23/6000FT/D R14/P6000FT/N -RA FG VV003 13/13 A2980 RMK FG8 SLP092 DENSITY ALT 500FT
Conditions at: CYHZ (HALIFAX INTL ARP, NS, CA) observed 1046 UTC 17 June 2019
Temperature: 13.0°C (55°F)
Dewpoint: 13.0°C (55°F) [RH = 100%]
Pressure (altimeter): 29.80 inches Hg (1009.2 mb)
[Sea-level pressure: 1009.2 mb]
Winds: from the SE (130 degrees) at 10 MPH (9 knots; 4.6 m/s)
Visibility: 0.50 miles (0.80 km)
Ceiling: indefinite ceiling with vertical visibility of 300 feet AGL
Clouds: obscured sky
Weather: -RA FG  (light rain, fog)

METAR text: CYHZ 171036Z 13009KT 1SM R23/P6000FT/D R14/P6000FT/D -RA BR BKN003 OVC008 13/13 A2980 RMK SF7SF1 PRESFR SLP092 DENSITY ALT 500FT
Conditions at: CYHZ (HALIFAX INTL ARP, NS, CA) observed 1036 UTC 17 June 2019
Temperature: 13.0°C (55°F)
Dewpoint: 13.0°C (55°F) [RH = 100%]
Pressure (altimeter): 29.80 inches Hg (1009.2 mb)
[Sea-level pressure: 1009.2 mb]
Winds: from the SE (130 degrees) at 10 MPH (9 knots; 4.6 m/s)
Visibility: 1.00 miles (1.61 km)
Ceiling: 300 feet AGL
Clouds: broken clouds at 300 feet AGL
overcast cloud deck at 800 feet AGL
Weather: -RA BR  (light rain, mist)

METAR text: CYHZ 171012Z 00000KT 3SM -RA BR SCT003 BKN008 OVC015 13/13 A2982 RMK SF4SF3SC1 SLP101 DENSITY ALT 500FT
Conditions at: CYHZ (HALIFAX INTL ARP, NS, CA) observed 1012 UTC 17 June 2019
Temperature: 13.0°C (55°F)
Dewpoint: 13.0°C (55°F) [RH = 100%]
Pressure (altimeter): 29.82 inches Hg (1009.9 mb)
[Sea-level pressure: 1010.1 mb]
Winds: calm
Visibility: 3 miles ( 5 km)
Ceiling: 800 feet AGL
Clouds: scattered clouds at 300 feet AGL
broken clouds at 800 feet AGL
overcast cloud deck at 1500 feet AGL
Weather: -RA BR  (light rain, mist)

METAR text: CYHZ 171000Z 13005KT 1 1/4SM -RA BR VV002 13/13 A2982 RMK FG8 CIG RGD SLP100 DENSITY ALT 500FT
Conditions at: CYHZ (HALIFAX INTL ARP, NS, CA) observed 1000 UTC 17 June 2019
Temperature: 13.0°C (55°F)
Dewpoint: 13.0°C (55°F) [RH = 100%]
Pressure (altimeter): 29.82 inches Hg (1009.9 mb)
[Sea-level pressure: 1010.0 mb]
Winds: from the SE (130 degrees) at 6 MPH (5 knots; 2.6 m/s)
Visibility: 1.25 miles (2.01 km)
Ceiling: indefinite ceiling with vertical visibility of 200 feet AGL
Clouds: obscured sky
Weather: -RA BR  (light rain, mist)

METAR text: CYHZ 170951Z 12004KT 1 1/2SM -RA BR VV002 13/13 A2982 RMK FG8 CIG RGD SLP100 DENSITY ALT 500FT
Conditions at: CYHZ (HALIFAX INTL ARP, NS, CA) observed 0951 UTC 17 June 2019
Temperature: 13.0°C (55°F)
Dewpoint: 13.0°C (55°F) [RH = 100%]
Pressure (altimeter): 29.82 inches Hg (1009.9 mb)
[Sea-level pressure: 1010.0 mb]
Winds: from the ESE (120 degrees) at 5 MPH (4 knots; 2.1 m/s)
Visibility: 1.50 miles (2.41 km)
Ceiling: indefinite ceiling with vertical visibility of 200 feet AGL
Clouds: obscured sky
Weather: -RA BR  (light rain, mist)

METAR text: CYHZ 170944Z 14005KT 1SM R23/P6000FT/D R14/P6000FT/D -RA BR VV001 13/13 A2982 RMK FG8 SLP100 DENSITY ALT 500FT
Conditions at: CYHZ (HALIFAX INTL ARP, NS, CA) observed 0944 UTC 17 June 2019
Temperature: 13.0°C (55°F)
Dewpoint: 13.0°C (55°F) [RH = 100%]
Pressure (altimeter): 29.82 inches Hg (1009.9 mb)
[Sea-level pressure: 1010.0 mb]
Winds: from the SE (140 degrees) at 6 MPH (5 knots; 2.6 m/s)
Visibility: 1.00 miles (1.61 km)
Ceiling: indefinite ceiling with vertical visibility of 100 feet AGL
Clouds: obscured sky
Weather: -RA BR  (light rain, mist)

METAR text: CYHZ 170914Z 10007KT 1 1/2SM -RA BR VV004 13/13 A2983 RMK FG8 SLP102 DENSITY ALT 500FT
Conditions at: CYHZ (HALIFAX INTL ARP, NS, CA) observed 0914 UTC 17 June 2019
Temperature: 13.0°C (55°F)
Dewpoint: 13.0°C (55°F) [RH = 100%]
Pressure (altimeter): 29.83 inches Hg (1010.2 mb)
[Sea-level pressure: 1010.2 mb]
Winds: from the E (100 degrees) at 8 MPH (7 knots; 3.6 m/s)
Visibility: 1.50 miles (2.41 km)
Ceiling: indefinite ceiling with vertical visibility of 400 feet AGL
Clouds: obscured sky
Weather: -RA BR  (light rain, mist)

METAR text: CYHZ 170900Z 16006KT 1 1/4SM -RA BR VV001 13/13 A2983 RMK FG8 SLP105 DENSITY ALT 500FT
Conditions at: CYHZ (HALIFAX INTL ARP, NS, CA) observed 0900 UTC 17 June 2019
Temperature: 13.0°C (55°F)
Dewpoint: 13.0°C (55°F) [RH = 100%]
Pressure (altimeter): 29.83 inches Hg (1010.2 mb)
[Sea-level pressure: 1010.5 mb]
Winds: from the SSE (160 degrees) at 7 MPH (6 knots; 3.1 m/s)
Visibility: 1.25 miles (2.01 km)
Ceiling: indefinite ceiling with vertical visibility of 100 feet AGL
Clouds: obscured sky
Weather: -RA BR  (light rain, mist)

METAR text: CYHZ 170851Z 16008KT 1SM R23/P6000FT/D R14/P6000FT/D -RA BR VV001 14/14 A2983 RMK FG8 SLP105 DENSITY ALT 600FT
Conditions at: CYHZ (HALIFAX INTL ARP, NS, CA) observed 0851 UTC 17 June 2019
Temperature: 14.0°C (57°F)
Dewpoint: 14.0°C (57°F) [RH = 100%]
Pressure (altimeter): 29.83 inches Hg (1010.2 mb)
[Sea-level pressure: 1010.5 mb]
Winds: from the SSE (160 degrees) at 9 MPH (8 knots; 4.1 m/s)
Visibility: 1.00 miles (1.61 km)
Ceiling: indefinite ceiling with vertical visibility of 100 feet AGL
Clouds: obscured sky
Weather: -RA BR  (light rain, mist)

METAR text: CYHZ 170842Z 14006KT 3/8SM R23/P6000FT/D R14/P6000FT/N -RA FG VV001 14/14 A2983 RMK FG8 SLP104 DENSITY ALT 600FT
Conditions at: CYHZ (HALIFAX INTL ARP, NS, CA) observed 0842 UTC 17 June 2019
Temperature: 14.0°C (57°F)
Dewpoint: 14.0°C (57°F) [RH = 100%]
Pressure (altimeter): 29.83 inches Hg (1010.2 mb)
[Sea-level pressure: 1010.4 mb]
Winds: from the SE (140 degrees) at 7 MPH (6 knots; 3.1 m/s)
Visibility: 0.38 miles (0.61 km)
Ceiling: indefinite ceiling with vertical visibility of 100 feet AGL
Clouds: obscured sky
Weather: -RA FG  (light rain, fog)

METAR text: CYHZ 170800Z 12003KT 1SM R23/P6000FT/U R14/P6000FT/N -RA BR BKN002 OVC017 14/14 A2983 RMK SF7SC1 SLP104 DENSITY ALT 600FT
Conditions at: CYHZ (HALIFAX INTL ARP, NS, CA) observed 0800 UTC 17 June 2019
Temperature: 14.0°C (57°F)
Dewpoint: 14.0°C (57°F) [RH = 100%]
Pressure (altimeter): 29.83 inches Hg (1010.2 mb)
[Sea-level pressure: 1010.4 mb]
Winds: from the ESE (120 degrees) at 3 MPH (3 knots; 1.5 m/s)
Visibility: 1.00 miles (1.61 km)
Ceiling: 200 feet AGL
Clouds: broken clouds at 200 feet AGL
overcast cloud deck at 1700 feet AGL
Weather: -RA BR  (light rain, mist)

METAR text: CYHZ 170752Z 15002KT 1SM R23/P6000FT/U R14/P6000FT/N -DZ BR VV002 14/14 A2983 RMK FG8 SLP105 DENSITY ALT 600FT
Conditions at: CYHZ (HALIFAX INTL ARP, NS, CA) observed 0752 UTC 17 June 2019
Temperature: 14.0°C (57°F)
Dewpoint: 14.0°C (57°F) [RH = 100%]
Pressure (altimeter): 29.83 inches Hg (1010.2 mb)
[Sea-level pressure: 1010.5 mb]
Winds: from the SSE (150 degrees) at 2 MPH (2 knots; 1.0 m/s)
Visibility: 1.00 miles (1.61 km)
Ceiling: indefinite ceiling with vertical visibility of 200 feet AGL
Clouds: obscured sky
Weather: -DZ BR  (light drizzle, mist)

METAR text: CYHZ 170743Z 15003KT 3/4SM R23/4000VP6000FT/U R14/P6000FT/N -DZ BR VV004 14/14 A2983 RMK FG8 SLP105 DENSITY ALT 600FT
Conditions at: CYHZ (HALIFAX INTL ARP, NS, CA) observed 0743 UTC 17 June 2019
Temperature: 14.0°C (57°F)
Dewpoint: 14.0°C (57°F) [RH = 100%]
Pressure (altimeter): 29.83 inches Hg (1010.2 mb)
[Sea-level pressure: 1010.5 mb]
Winds: from the SSE (150 degrees) at 3 MPH (3 knots; 1.5 m/s)
Visibility: 0.75 miles (1.21 km)
Ceiling: indefinite ceiling with vertical visibility of 400 feet AGL
Clouds: obscured sky
Weather: -DZ BR  (light drizzle, mist)

METAR text: CYHZ 170700Z 18002KT 1/4SM R23/3000FT/U R14/2800V6000FT/U FG VV001 14/14 A2984 RMK FG8 SLP107 DENSITY ALT 600FT
Conditions at: CYHZ (HALIFAX INTL ARP, NS, CA) observed 0700 UTC 17 June 2019
Temperature: 14.0°C (57°F)
Dewpoint: 14.0°C (57°F) [RH = 100%]
Pressure (altimeter): 29.84 inches Hg (1010.6 mb)
[Sea-level pressure: 1010.7 mb]
Winds: from the S (180 degrees) at 2 MPH (2 knots; 1.0 m/s)
Visibility: 0.25 miles (0.40 km)
Ceiling: indefinite ceiling with vertical visibility of 100 feet AGL
Clouds: obscured sky
Weather: FG  (fog)

METAR text: CYHZ 170631Z 17005KT 1/4SM R23/2600FT/N R14/2600FT/N FG VV001 14/14 A2985 RMK FG8 SLP111 DENSITY ALT 600FT
Conditions at: CYHZ (HALIFAX INTL ARP, NS, CA) observed 0631 UTC 17 June 2019
Temperature: 14.0°C (57°F)
Dewpoint: 14.0°C (57°F) [RH = 100%]
Pressure (altimeter): 29.85 inches Hg (1010.9 mb)
[Sea-level pressure: 1011.1 mb]
Winds: from the S (170 degrees) at 6 MPH (5 knots; 2.6 m/s)
Visibility: 0.25 miles (0.40 km)
Ceiling: indefinite ceiling with vertical visibility of 100 feet AGL
Clouds: obscured sky
Weather: FG  (fog)

METAR text: CYHZ 170600Z 16004KT 3/8SM R23/3000FT/D R14/3500FT/U FG VV001 14/14 A2986 RMK FG8 SLP112 DENSITY ALT 600FT
Conditions at: CYHZ (HALIFAX INTL ARP, NS, CA) observed 0600 UTC 17 June 2019
Temperature: 14.0°C (57°F)
Dewpoint: 14.0°C (57°F) [RH = 100%]
Pressure (altimeter): 29.86 inches Hg (1011.3 mb)
[Sea-level pressure: 1011.2 mb]
Winds: from the SSE (160 degrees) at 5 MPH (4 knots; 2.1 m/s)
Visibility: 0.38 miles (0.61 km)
Ceiling: indefinite ceiling with vertical visibility of 100 feet AGL
Clouds: obscured sky
Weather: FG  (fog)

METAR text: CYHZ 170531Z 18005KT 3/8SM R23/6000FT/D R14/3000VP6000FT/D FG VV001 14/14 A2986 RMK FG8 SLP115 DENSITY ALT 600FT
Conditions at: CYHZ (HALIFAX INTL ARP, NS, CA) observed 0531 UTC 17 June 2019
Temperature: 14.0°C (57°F)
Dewpoint: 14.0°C (57°F) [RH = 100%]
Pressure (altimeter): 29.86 inches Hg (1011.3 mb)
[Sea-level pressure: 1011.5 mb]
Winds: from the S (180 degrees) at 6 MPH (5 knots; 2.6 m/s)
Visibility: 0.38 miles (0.61 km)
Ceiling: indefinite ceiling with vertical visibility of 100 feet AGL
Clouds: obscured sky
Weather: FG  (fog)

METAR text: CYHZ 170518Z 17005KT 3/4SM R23/P6000FT/N R14/P6000FT/N BR VV001 14/14 A2987 RMK FG8 SLP116 DENSITY ALT 600FT
Conditions at: CYHZ (HALIFAX INTL ARP, NS, CA) observed 0518 UTC 17 June 2019
Temperature: 14.0°C (57°F)
Dewpoint: 14.0°C (57°F) [RH = 100%]
Pressure (altimeter): 29.87 inches Hg (1011.6 mb)
[Sea-level pressure: 1011.6 mb]
Winds: from the S (170 degrees) at 6 MPH (5 knots; 2.6 m/s)
Visibility: 0.75 miles (1.21 km)
Ceiling: indefinite ceiling with vertical visibility of 100 feet AGL
Clouds: obscured sky
Weather: BR  (mist)

METAR text: CYHZ 170511Z 17005KT 1 1/2SM BR VV001 14/14 A2987 RMK FG8 SLP116 DENSITY ALT 600FT
Conditions at: CYHZ (HALIFAX INTL ARP, NS, CA) observed 0511 UTC 17 June 2019
Temperature: 14.0°C (57°F)
Dewpoint: 14.0°C (57°F) [RH = 100%]
Pressure (altimeter): 29.87 inches Hg (1011.6 mb)
[Sea-level pressure: 1011.6 mb]
Winds: from the S (170 degrees) at 6 MPH (5 knots; 2.6 m/s)
Visibility: 1.50 miles (2.41 km)
Ceiling: indefinite ceiling with vertical visibility of 100 feet AGL
Clouds: obscured sky
Weather: BR  (mist)

METAR text: CYHZ 170500Z 17004KT 1 1/2SM -DZ BR VV001 14/14 A2987 RMK FG8 SLP117 DENSITY ALT 600FT
Conditions at: CYHZ (HALIFAX INTL ARP, NS, CA) observed 0500 UTC 17 June 2019
Temperature: 14.0°C (57°F)
Dewpoint: 14.0°C (57°F) [RH = 100%]
Pressure (altimeter): 29.87 inches Hg (1011.6 mb)
[Sea-level pressure: 1011.7 mb]
Winds: from the S (170 degrees) at 5 MPH (4 knots; 2.1 m/s)
Visibility: 1.50 miles (2.41 km)
Ceiling: indefinite ceiling with vertical visibility of 100 feet AGL
Clouds: obscured sky
Weather: -DZ BR  (light drizzle, mist)

METAR text: CYHZ 170436Z 19005KT 1 1/2SM -DZ BR VV001 14/14 A2988 RMK FG8 SLP121 DENSITY ALT 500FT
Conditions at: CYHZ (HALIFAX INTL ARP, NS, CA) observed 0436 UTC 17 June 2019
Temperature: 14.0°C (57°F)
Dewpoint: 14.0°C (57°F) [RH = 100%]
Pressure (altimeter): 29.88 inches Hg (1011.9 mb)
[Sea-level pressure: 1012.1 mb]
Winds: from the S (190 degrees) at 6 MPH (5 knots; 2.6 m/s)
Visibility: 1.50 miles (2.41 km)
Ceiling: indefinite ceiling with vertical visibility of 100 feet AGL
Clouds: obscured sky
Weather: -DZ BR  (light drizzle, mist)

METAR text: CYHZ 170408Z 19005KT 3SM -RA BR BKN002 OVC043 14/14 A2989 RMK SF6SC2 SLP122 DENSITY ALT 500FT
Conditions at: CYHZ (HALIFAX INTL ARP, NS, CA) observed 0408 UTC 17 June 2019
Temperature: 14.0°C (57°F)
Dewpoint: 14.0°C (57°F) [RH = 100%]
Pressure (altimeter): 29.89 inches Hg (1012.3 mb)
[Sea-level pressure: 1012.2 mb]
Winds: from the S (190 degrees) at 6 MPH (5 knots; 2.6 m/s)
Visibility: 3 miles ( 5 km)
Ceiling: 200 feet AGL
Clouds: broken clouds at 200 feet AGL
overcast cloud deck at 4300 feet AGL
Weather: -RA BR  (light rain, mist)

METAR text: CYHZ 170400Z 19007KT 2SM -RA BR VV001 14/14 A2989 RMK FG8 SLP123 DENSITY ALT 500FT
Conditions at: CYHZ (HALIFAX INTL ARP, NS, CA) observed 0400 UTC 17 June 2019
Temperature: 14.0°C (57°F)
Dewpoint: 14.0°C (57°F) [RH = 100%]
Pressure (altimeter): 29.89 inches Hg (1012.3 mb)
[Sea-level pressure: 1012.3 mb]
Winds: from the S (190 degrees) at 8 MPH (7 knots; 3.6 m/s)
Visibility: 2.00 miles (3.22 km)
Ceiling: indefinite ceiling with vertical visibility of 100 feet AGL
Clouds: obscured sky
Weather: -RA BR  (light rain, mist)

METAR text: CYHZ 170330Z 20008KT 1SM R23/P6000FT/N R14/P6000FT/N BR VV001 14/14 A2989 RMK FG8 SLP123 DENSITY ALT 600FT
Conditions at: CYHZ (HALIFAX INTL ARP, NS, CA) observed 0330 UTC 17 June 2019
Temperature: 14.0°C (57°F)
Dewpoint: 14.0°C (57°F) [RH = 100%]
Pressure (altimeter): 29.89 inches Hg (1012.3 mb)
[Sea-level pressure: 1012.3 mb]
Winds: from the SSW (200 degrees) at 9 MPH (8 knots; 4.1 m/s)
Visibility: 1.00 miles (1.61 km)
Ceiling: indefinite ceiling with vertical visibility of 100 feet AGL
Clouds: obscured sky
Weather: BR  (mist)

METAR text: CYHZ 170300Z 20006KT 2SM BR VV001 14/14 A2989 RMK FG8 SLP125 DENSITY ALT 600FT
Conditions at: CYHZ (HALIFAX INTL ARP, NS, CA) observed 0300 UTC 17 June 2019
Temperature: 14.0°C (57°F)
Dewpoint: 14.0°C (57°F) [RH = 100%]
Pressure (altimeter): 29.89 inches Hg (1012.3 mb)
[Sea-level pressure: 1012.5 mb]
Winds: from the SSW (200 degrees) at 7 MPH (6 knots; 3.1 m/s)
Visibility: 2.00 miles (3.22 km)
Ceiling: indefinite ceiling with vertical visibility of 100 feet AGL
Clouds: obscured sky
Weather: BR  (mist)

METAR text: CYHZ 170200Z 22004KT 4SM BR OVC002 15/15 A2990 RMK ST8 CIG VRB 1-3 VIS HIER N SLP127 DENSITY ALT 700FT
Conditions at: CYHZ (HALIFAX INTL ARP, NS, CA) observed 0200 UTC 17 June 2019
Temperature: 15.0°C (59°F)
Dewpoint: 15.0°C (59°F) [RH = 100%]
Pressure (altimeter): 29.90 inches Hg (1012.6 mb)
[Sea-level pressure: 1012.7 mb]
Winds: from the SW (220 degrees) at 5 MPH (4 knots; 2.1 m/s)
Visibility: 4 miles ( 6 km)
Ceiling: 200 feet AGL
Clouds: overcast cloud deck at 200 feet AGL
Weather: BR  (mist)

METAR text: CYHZ 170100Z 22005KT 8SM OVC002 15/15 A2989 RMK ST8 SLP125 DENSITY ALT 700FT
Conditions at: CYHZ (HALIFAX INTL ARP, NS, CA) observed 0100 UTC 17 June 2019
Temperature: 15.0°C (59°F)
Dewpoint: 15.0°C (59°F) [RH = 100%]
Pressure (altimeter): 29.89 inches Hg (1012.3 mb)
[Sea-level pressure: 1012.5 mb]
Winds: from the SW (220 degrees) at 6 MPH (5 knots; 2.6 m/s)
Visibility: 8 miles (13 km)
Ceiling: 200 feet AGL
Clouds: overcast cloud deck at 200 feet AGL
Weather: no significant weather observed at this time

METAR text: CYHZ 170043Z 21006KT 10SM OVC002 15/15 A2989 RMK ST8 SLP124 DENSITY ALT 700FT
Conditions at: CYHZ (HALIFAX INTL ARP, NS, CA) observed 0043 UTC 17 June 2019
Temperature: 15.0°C (59°F)
Dewpoint: 15.0°C (59°F) [RH = 100%]
Pressure (altimeter): 29.89 inches Hg (1012.3 mb)
[Sea-level pressure: 1012.4 mb]
Winds: from the SSW (210 degrees) at 7 MPH (6 knots; 3.1 m/s)
Visibility: 10 or more miles (16+ km)
Ceiling: 200 feet AGL
Clouds: overcast cloud deck at 200 feet AGL
Weather: no significant weather observed at this time

METAR text: CYHZ 170027Z 22009KT 12SM BKN004 BKN065 BKN100 16/15 A2988 RMK SF5SC1AC1 SLP123 DENSITY ALT 700FT
Conditions at: CYHZ (HALIFAX INTL ARP, NS, CA) observed 0027 UTC 17 June 2019
Temperature: 16.0°C (61°F)
Dewpoint: 15.0°C (59°F) [RH = 94%]
Pressure (altimeter): 29.88 inches Hg (1011.9 mb)
[Sea-level pressure: 1012.3 mb]
Winds: from the SW (220 degrees) at 10 MPH (9 knots; 4.6 m/s)
Visibility: 12 miles (19 km)
Ceiling: 400 feet AGL
Clouds: broken clouds at 400 feet AGL
broken clouds at 6500 feet AGL
broken clouds at 10000 feet AGL
Weather: no significant weather observed at this time

METAR text: CYHZ 170000Z 22010KT 15SM FEW005 BKN095 BKN140 BKN240 16/15 A2988 RMK SF1AC6AC1CI1 AC TR CI TR SLP121 DENSITY ALT 800FT
Conditions at: CYHZ (HALIFAX INTL ARP, NS, CA) observed 0000 UTC 17 June 2019
Temperature: 16.0°C (61°F)
Dewpoint: 15.0°C (59°F) [RH = 94%]
Pressure (altimeter): 29.88 inches Hg (1011.9 mb)
[Sea-level pressure: 1012.1 mb]
Winds: from the SW (220 degrees) at 12 MPH (10 knots; 5.1 m/s)
Visibility: 15 miles (24 km)
Ceiling: 9500 feet AGL
Clouds: few clouds at 500 feet AGL
broken clouds at 9500 feet AGL
broken clouds at 14000 feet AGL
broken clouds at 24000 feet AGL
Weather: no significant weather observed at this time

METAR text: CYHZ 162350Z 22009KT 15SM FEW005 BKN090 OVC140 16/15 A2988 RMK SF1AC6AC1 SLP120 DENSITY ALT 800FT
Conditions at: CYHZ (HALIFAX INTL ARP, NS, CA) observed 2350 UTC 16 June 2019
Temperature: 16.0°C (61°F)
Dewpoint: 15.0°C (59°F) [RH = 94%]
Pressure (altimeter): 29.88 inches Hg (1011.9 mb)
[Sea-level pressure: 1012.0 mb]
Winds: from the SW (220 degrees) at 10 MPH (9 knots; 4.6 m/s)
Visibility: 15 miles (24 km)
Ceiling: 9000 feet AGL
Clouds: few clouds at 500 feet AGL
broken clouds at 9000 feet AGL
overcast cloud deck at 14000 feet AGL
Weather: no significant weather observed at this time

METAR text: CYHZ 162300Z 21010KT 15SM -RA BKN100 BKN120 BKN240 16/16 A2987 RMK AC6AS1CS1 CS TR SLP118 DENSITY ALT 800FT
Conditions at: CYHZ (HALIFAX INTL ARP, NS, CA) observed 2300 UTC 16 June 2019
Temperature: 16.0°C (61°F)
Dewpoint: 16.0°C (61°F) [RH = 100%]
Pressure (altimeter): 29.87 inches Hg (1011.6 mb)
[Sea-level pressure: 1011.8 mb]
Winds: from the SSW (210 degrees) at 12 MPH (10 knots; 5.1 m/s)
Visibility: 15 miles (24 km)
Ceiling: 10000 feet AGL
Clouds: broken clouds at 10000 feet AGL
broken clouds at 12000 feet AGL
broken clouds at 24000 feet AGL
Weather: -RA  (light rain)

Forecast for: CYHZ (HALIFAX INTL ARP, NS, CA)
Text: TAF CYHZ 180838Z 1809/1906 28006KT P6SM FEW090
Forecast period: 0900 to 1500 UTC 18 June 2019
Forecast type: FROM: standard forecast or significant change
Winds: from the W (280 degrees) at 7 MPH (6 knots; 3.1 m/s)
Visibility: 6 or more miles 10+ km)
Ceiling: at least 12,000 feet AGL
Clouds: few clouds at 9000 feet AGL
Weather: no significant weather forecast for this period
Text: FM181500 31010KT P6SM FEW040
Forecast period: 1500 to 2100 UTC 18 June 2019
Forecast type: FROM: standard forecast or significant change
Winds: from the NW (310 degrees) at 12 MPH (10 knots; 5.1 m/s)
Visibility: 6 or more miles 10+ km)
Ceiling: at least 12,000 feet AGL
Clouds: few clouds at 4000 feet AGL
Weather: no significant weather forecast for this period
Text: BECMG 1821/1823 21008KT
Forecast period: 2100 UTC 18 June 2019 to 0400 UTC 19 June 2019
Forecast type: BECOMING: Conditions expected to become as follows by 2300 UTC 18 June 2019
Winds: from the SSW (210 degrees) at 9 MPH (8 knots; 4.1 m/s)
Visibility: 6 or more miles 10+ km)
Ceiling: at least 12,000 feet AGL
Clouds: few clouds at 4000 feet AGL
Weather: no significant weather forecast for this period
Text: BECMG 1904/1906 18005KT RMK NXT FCST BY 181200Z
Forecast period: 0400 to 0600 UTC 19 June 2019
Forecast type: BECOMING: Conditions expected to become as follows by 0600 UTC 19 June 2019
Winds: from the S (180 degrees) at 6 MPH (5 knots; 2.6 m/s)
Visibility: 6 or more miles 10+ km)
Ceiling: at least 12,000 feet AGL
Clouds: few clouds at 4000 feet AGL
Weather: no significant weather forecast for this period